Time;durP1;ratioP1;P1;durP2;ratioP2;P2;SDS_P1;SDS_P2;PMS_P1;PMS_P2;Temp;Humidity;BMP_temperature;BMP_pressure;BME280_temperature;BME280_humidity;BME280_pressure;Samples;Min_cycle;Max_cycle;Signal;HPM_P1;HPM_P2
2024/03/24 00:01:30;;;;;;;17.98;3.88;;;;;;;5.01;100.00;100470.66;5094940;28;20035;-77
2024/03/24 00:03:56;;;;;;;14.05;3.75;;;;;;;5.12;100.00;100466.28;5094738;28;20077;-77
2024/03/24 00:06:21;;;;;;;17.70;3.65;;;;;;;5.23;100.00;100485.75;5094598;28;20031;-78
2024/03/24 00:08:46;;;;;;;15.27;4.03;;;;;;;5.34;100.00;100469.94;5095099;28;20120;-77
2024/03/24 00:11:12;;;;;;;18.40;3.47;;;;;;;5.44;100.00;100480.66;5095125;28;20019;-77
2024/03/24 00:13:37;;;;;;;17.02;3.85;;;;;;;5.62;100.00;100478.44;5094697;28;20085;-77
2024/03/24 00:16:03;;;;;;;13.77;3.83;;;;;;;5.73;100.00;100473.22;5094486;28;20144;-78
2024/03/24 00:18:28;;;;;;;15.45;3.72;;;;;;;5.78;100.00;100478.97;5094811;28;20373;-80
2024/03/24 00:20:54;;;;;;;10.50;3.30;;;;;;;5.84;100.00;100459.19;5095036;28;20024;-78
2024/03/24 00:23:19;;;;;;;16.95;4.13;;;;;;;5.91;100.00;100456.91;5077252;28;20043;-79
2024/03/24 00:25:44;;;;;;;15.68;3.58;;;;;;;5.93;100.00;100461.09;5094480;28;20028;-77
2024/03/24 00:28:10;;;;;;;14.25;3.55;;;;;;;5.93;100.00;100462.91;5094833;28;20086;-78
2024/03/24 00:30:35;;;;;;;23.02;4.38;;;;;;;5.97;100.00;100454.66;5094419;28;20109;-77
2024/03/24 00:33:00;;;;;;;17.55;3.20;;;;;;;5.98;100.00;100451.03;5094492;28;20035;-76
2024/03/24 00:35:26;;;;;;;20.52;3.58;;;;;;;6.01;100.00;100449.97;5094734;28;20052;-77
2024/03/24 00:37:51;;;;;;;15.55;3.03;;;;;;;6.06;100.00;100442.56;5094313;28;20047;-77
2024/03/24 00:40:17;;;;;;;12.52;3.33;;;;;;;6.09;100.00;100457.28;5094206;28;20024;-77
2024/03/24 00:42:42;;;;;;;15.30;3.58;;;;;;;6.11;100.00;100453.59;5094366;28;20034;-77
2024/03/24 00:45:09;;;;;;;15.32;3.65;;;;;;;6.12;100.00;100444.72;5094162;28;20032;-77
2024/03/24 00:47:34;;;;;;;14.25;3.25;;;;;;;6.11;100.00;100435.09;5094217;28;20024;-77
2024/03/24 00:50:00;;;;;;;12.27;3.70;;;;;;;6.17;100.00;100444.34;5094100;28;20396;-78
2024/03/24 00:52:25;;;;;;;21.98;4.10;;;;;;;6.11;100.00;100428.97;5094068;28;20024;-78
2024/03/24 00:54:50;;;;;;;19.90;3.33;;;;;;;6.06;100.00;100424.06;5093873;28;20055;-78
2024/03/24 00:57:16;;;;;;;16.83;3.95;;;;;;;6.03;100.00;100416.38;5093883;28;20472;-77
2024/03/24 00:59:41;;;;;;;10.02;3.25;;;;;;;6.02;100.00;100416.47;5093768;28;20031;-77
2024/03/24 01:02:06;;;;;;;14.88;3.50;;;;;;;5.96;100.00;100410.69;5093731;28;20443;-77
2024/03/24 01:04:32;;;;;;;15.80;3.63;;;;;;;5.84;100.00;100427.50;5075761;28;20146;-77
2024/03/24 01:06:57;;;;;;;17.90;4.75;;;;;;;5.75;100.00;100418.47;5093704;28;20127;-76
2024/03/24 01:09:22;;;;;;;13.80;3.25;;;;;;;5.65;100.00;100430.69;5093547;28;20028;-78
2024/03/24 01:11:48;;;;;;;17.25;3.72;;;;;;;5.55;100.00;100429.72;5093446;28;20039;-77
2024/03/24 01:14:13;;;;;;;19.90;4.03;;;;;;;5.43;100.00;100434.97;5093780;28;20039;-77
2024/03/24 01:16:39;;;;;;;13.13;3.22;;;;;;;5.28;100.00;100429.06;5093449;28;20134;-77
2024/03/24 01:19:04;;;;;;;10.23;3.10;;;;;;;5.12;100.00;100417.97;5094186;28;20016;-77
2024/03/24 01:21:29;;;;;;;11.70;3.38;;;;;;;5.02;100.00;100422.25;5093757;28;20023;-77
2024/03/24 01:23:56;;;;;;;12.55;3.50;;;;;;;4.95;100.00;100414.75;5075024;28;20028;-78
2024/03/24 01:26:22;;;;;;;13.48;3.95;;;;;;;4.91;100.00;100421.22;5093565;28;20032;-77
2024/03/24 01:28:47;;;;;;;23.60;4.50;;;;;;;4.87;100.00;100424.22;5093554;28;20028;-77
2024/03/24 01:31:13;;;;;;;14.00;4.32;;;;;;;4.83;100.00;100405.13;5093136;28;20102;-78
2024/03/24 01:33:38;;;;;;;19.10;4.10;;;;;;;4.79;100.00;100402.84;5093283;28;20333;-79
2024/03/24 01:36:04;;;;;;;16.02;3.67;;;;;;;4.72;100.00;100399.81;5093427;28;20333;-78
2024/03/24 01:38:30;;;;;;;24.55;3.13;;;;;;;4.64;100.00;100392.44;5093618;28;20024;-77
2024/03/24 01:40:55;;;;;;;10.23;3.30;;;;;;;4.58;100.00;100385.84;5093226;28;20051;-78
2024/03/24 01:43:20;;;;;;;24.38;3.70;;;;;;;4.55;100.00;100388.72;5093088;28;20059;-77
2024/03/24 01:45:48;;;;;;;15.20;4.05;;;;;;;4.62;100.00;100391.72;5092844;28;20050;-77
2024/03/24 01:48:15;;;;;;;23.88;4.10;;;;;;;4.69;100.00;100379.78;5092794;28;20527;-76
2024/03/24 01:50:40;;;;;;;17.45;4.90;;;;;;;4.80;100.00;100381.63;5074457;28;20028;-83
2024/03/24 01:53:09;;;;;;;17.52;4.22;;;;;;;4.91;100.00;100372.91;5092989;28;20412;-76
2024/03/24 01:55:34;;;;;;;14.10;4.40;;;;;;;5.01;100.00;100383.63;5092906;28;20160;-76
2024/03/24 01:58:00;;;;;;;16.55;3.90;;;;;;;5.09;100.00;100383.88;5092733;28;20051;-76
2024/03/24 02:00:25;;;;;;;10.32;2.90;;;;;;;5.16;100.00;100364.00;5092748;28;20043;-74
2024/03/24 02:02:51;;;;;;;14.55;3.63;;;;;;;5.20;100.00;100372.56;5092566;28;20046;-76
2024/03/24 02:05:23;;;;;;;20.38;3.65;;;;;;;5.16;100.00;100374.56;5092790;28;20306;-75
2024/03/24 02:07:49;;;;;;;11.88;3.22;;;;;;;5.11;100.00;100361.72;5092740;28;20032;-75
2024/03/24 02:10:14;;;;;;;22.80;4.40;;;;;;;5.07;100.00;100360.28;5092608;28;20020;-75
2024/03/24 02:12:40;;;;;;;19.08;4.00;;;;;;;5.07;100.00;100364.72;5092747;28;20032;-76
2024/03/24 02:15:05;;;;;;;17.35;4.20;;;;;;;5.14;100.00;100355.38;5092148;28;20446;-76
2024/03/24 02:17:31;;;;;;;20.27;3.95;;;;;;;5.20;100.00;100362.84;5092507;28;20107;-75
2024/03/24 02:19:56;;;;;;;14.90;3.97;;;;;;;5.25;100.00;100358.03;5092467;28;20490;-76
2024/03/24 02:22:21;;;;;;;22.48;4.93;;;;;;;5.28;100.00;100364.88;5091763;28;20448;-75
2024/03/24 02:24:47;;;;;;;21.10;4.60;;;;;;;5.32;100.00;100342.59;5092143;28;20113;-77
2024/03/24 02:27:12;;;;;;;24.80;5.50;;;;;;;5.34;100.00;100353.88;5092283;28;20097;-76
2024/03/24 02:29:37;;;;;;;28.45;4.85;;;;;;;5.37;100.00;100352.81;5073943;28;20476;-75
2024/03/24 02:32:03;;;;;;;30.45;4.75;;;;;;;5.39;100.00;100361.41;5092098;28;20038;-75
2024/03/24 02:34:28;;;;;;;24.60;5.07;;;;;;;5.45;100.00;100347.78;5092060;28;20036;-75
2024/03/24 02:36:53;;;;;;;29.75;4.55;;;;;;;5.54;100.00;100355.00;5092189;28;20046;-74
2024/03/24 02:39:20;;;;;;;17.40;5.38;;;;;;;5.63;100.00;100345.53;5092749;28;20035;-76
2024/03/24 02:41:45;;;;;;;18.00;4.57;;;;;;;5.69;100.00;100350.31;5074404;28;20028;-74
2024/03/24 02:44:11;;;;;;;25.38;4.93;;;;;;;5.74;100.00;100348.16;5091804;28;20120;-74
2024/03/24 02:46:37;;;;;;;22.23;4.18;;;;;;;5.83;100.00;100354.53;5092252;28;20043;-75
2024/03/24 02:49:02;;;;;;;17.27;4.00;;;;;;;5.86;100.00;100348.16;5091756;28;20028;-75
2024/03/24 02:51:28;;;;;;;15.93;3.72;;;;;;;5.88;100.00;100344.44;5092150;28;20032;-75
2024/03/24 02:53:53;;;;;;;16.27;4.55;;;;;;;5.91;100.00;100352.13;5092005;28;20089;-78
2024/03/24 02:56:18;;;;;;;16.80;4.47;;;;;;;5.93;100.00;100338.81;5074117;28;20032;-77
2024/03/24 02:58:44;;;;;;;16.35;3.75;;;;;;;5.94;100.00;100353.66;5092266;28;20020;-77
2024/03/24 03:01:09;;;;;;;12.38;4.07;;;;;;;5.95;100.00;100348.25;5091485;28;20020;-78
2024/03/24 03:03:34;;;;;;;28.08;4.88;;;;;;;5.92;100.00;100345.03;5073691;28;20039;-79
2024/03/24 03:06:00;;;;;;;19.80;4.35;;;;;;;5.92;100.00;100364.34;5091508;28;20038;-78
2024/03/24 03:08:25;;;;;;;9.75;2.85;;;;;;;5.86;100.00;100366.66;5074089;28;20134;-78
2024/03/24 03:10:50;;;;;;;10.80;2.20;;;;;;;5.58;100.00;100382.84;5092249;28;20173;-84
2024/03/24 03:13:16;;;;;;;9.68;1.83;;;;;;;5.22;100.00;100383.81;5091793;28;20468;-77
2024/03/24 03:15:41;;;;;;;8.35;1.48;;;;;;;4.92;100.00;100378.06;5091544;28;20052;-77
2024/03/24 03:18:07;;;;;;;9.95;1.35;;;;;;;4.69;100.00;100389.50;5091668;28;20360;-78
2024/03/24 03:20:33;;;;;;;5.05;1.23;;;;;;;4.45;100.00;100387.69;5073755;28;20444;-77
2024/03/24 03:22:58;;;;;;;9.02;1.27;;;;;;;4.24;100.00;100376.91;5091441;28;20043;-78
2024/03/24 03:25:23;;;;;;;9.13;1.58;;;;;;;4.05;100.00;100385.25;5091593;28;20463;-78
2024/03/24 03:27:49;;;;;;;7.18;1.27;;;;;;;3.96;100.00;100388.53;5091505;28;20028;-78
2024/03/24 03:30:14;;;;;;;5.75;1.48;;;;;;;3.94;100.00;100398.31;5091413;28;20361;-77
2024/03/24 03:32:40;;;;;;;4.88;1.75;;;;;;;3.96;100.00;100396.44;5091857;28;20123;-78
2024/03/24 03:35:05;;;;;;;5.53;1.48;;;;;;;3.94;100.00;100406.22;5095500;28;20426;-78
2024/03/24 03:37:30;;;;;;;8.68;1.50;;;;;;;3.89;100.00;100402.09;5095824;28;20058;-78
2024/03/24 03:39:56;;;;;;;7.43;1.60;;;;;;;3.83;100.00;100399.06;5095569;28;20112;-78
2024/03/24 03:42:21;;;;;;;6.85;1.50;;;;;;;3.76;100.00;100411.78;5077229;28;20498;-79
2024/03/24 03:44:47;;;;;;;7.18;2.90;;;;;;;3.68;100.00;100403.59;5095331;28;20089;-79
2024/03/24 03:47:17;;;;;;;7.40;1.50;;;;;;;3.61;100.00;100397.06;5095229;28;20061;-79
2024/03/24 03:49:50;;;;;;;9.45;2.05;;;;;;;3.56;100.00;100401.81;5095620;28;20352;-79
2024/03/24 03:52:15;;;;;;;10.40;2.20;;;;;;;3.53;100.00;100400.22;5095891;28;20052;-78
2024/03/24 03:54:41;;;;;;;8.23;2.40;;;;;;;3.47;100.00;100379.59;5096307;28;20471;-79
2024/03/24 03:57:06;;;;;;;9.60;1.90;;;;;;;3.44;100.00;100382.44;5096002;28;20020;-79
2024/03/24 03:59:31;;;;;;;9.15;2.10;;;;;;;3.44;100.00;100403.50;5077656;28;20017;-78
2024/03/24 04:01:57;;;;;;;9.32;2.63;;;;;;;3.40;100.00;100394.94;5077590;28;20383;-84
2024/03/24 04:04:23;;;;;;;3.88;1.63;;;;;;;3.43;100.00;100413.16;5095841;28;20028;-78
2024/03/24 04:06:49;;;;;;;8.90;1.83;;;;;;;3.44;100.00;100409.59;5096203;28;20699;-79
2024/03/24 04:09:16;;;;;;;6.82;1.90;;;;;;;3.44;100.00;100406.94;5095655;28;20028;-79
2024/03/24 04:11:42;;;;;;;12.55;2.97;;;;;;;3.38;100.00;100407.38;5095857;28;20078;-79
2024/03/24 04:14:08;;;;;;;9.48;2.40;;;;;;;3.22;100.00;100397.03;5095977;28;20059;-79
2024/03/24 04:16:33;;;;;;;8.27;2.50;;;;;;;3.12;100.00;100395.94;5095560;28;20365;-79
2024/03/24 04:18:59;;;;;;;5.78;2.05;;;;;;;3.07;100.00;100384.91;5095506;28;20066;-85
2024/03/24 04:21:24;;;;;;;4.32;1.85;;;;;;;3.03;100.00;100391.31;5095725;28;20036;-78
2024/03/24 04:23:51;;;;;;;6.93;2.33;;;;;;;2.99;100.00;100394.16;5095690;28;20081;-78
2024/03/24 04:26:16;;;;;;;8.57;2.15;;;;;;;3.02;100.00;100395.75;5077493;28;20421;-77
2024/03/24 04:28:41;;;;;;;16.85;2.50;;;;;;;3.02;100.00;100395.75;5095730;28;20035;-78
2024/03/24 04:31:07;;;;;;;14.25;2.60;;;;;;;3.05;100.00;100384.19;5095617;28;20028;-76
2024/03/24 04:33:32;;;;;;;6.32;2.15;;;;;;;3.05;100.00;100385.03;5095537;28;20429;-77
2024/03/24 04:35:57;;;;;;;17.95;2.97;;;;;;;3.06;100.00;100384.09;5095593;28;20044;-77
2024/03/24 04:38:23;;;;;;;7.88;2.10;;;;;;;3.08;100.00;100371.66;5095307;28;20403;-77
2024/03/24 04:40:48;;;;;;;14.90;2.47;;;;;;;3.10;100.00;100372.41;5095578;28;20061;-77
2024/03/24 04:43:15;;;;;;;13.23;2.75;;;;;;;3.12;100.00;100375.78;5095126;28;20035;-77
2024/03/24 04:45:43;;;;;;;13.93;3.55;;;;;;;3.28;100.00;100374.75;5076745;28;20027;-77
2024/03/24 04:48:11;;;;;;;7.90;3.25;;;;;;;3.38;100.00;100369.72;5095338;28;20024;-77
2024/03/24 04:50:37;;;;;;;23.90;5.10;;;;;;;3.51;100.00;100378.47;5095016;28;20020;-77
2024/03/24 04:53:03;;;;;;;15.05;4.00;;;;;;;3.81;100.00;100370.22;5095587;28;20028;-78
2024/03/24 04:55:28;;;;;;;20.27;5.80;;;;;;;4.13;100.00;100388.19;5094894;28;20387;-77
2024/03/24 04:57:54;;;;;;;16.85;4.82;;;;;;;4.38;100.00;100368.84;5095507;28;20032;-77
2024/03/24 05:00:19;;;;;;;18.52;4.80;;;;;;;4.53;100.00;100373.94;5095111;28;20024;-78
2024/03/24 05:02:45;;;;;;;20.83;4.57;;;;;;;4.64;100.00;100391.63;5077113;28;20043;-77
2024/03/24 05:05:11;;;;;;;23.27;4.55;;;;;;;4.76;100.00;100361.72;5094756;28;20028;-77
2024/03/24 05:07:37;;;;;;;23.73;4.40;;;;;;;4.84;100.00;100382.25;5094999;28;20039;-77
2024/03/24 05:10:03;;;;;;;10.40;4.30;;;;;;;4.89;100.00;100357.22;5095097;28;20374;-77
2024/03/24 05:12:28;;;;;;;21.17;4.97;;;;;;;4.88;100.00;100366.09;5095115;28;20036;-78
2024/03/24 05:14:53;;;;;;;19.67;4.50;;;;;;;4.88;100.00;100370.50;5094784;28;20052;-78
2024/03/24 05:17:19;;;;;;;21.25;4.57;;;;;;;4.92;100.00;100371.97;5094810;28;20032;-75
2024/03/24 05:19:44;;;;;;;20.70;4.53;;;;;;;4.92;100.00;100377.25;5094594;28;20032;-77
2024/03/24 05:22:10;;;;;;;19.83;4.40;;;;;;;4.92;100.00;100379.88;5094388;28;20028;-77
2024/03/24 05:24:38;;;;;;;17.40;4.28;;;;;;;4.91;100.00;100376.41;5094474;28;20031;-77
2024/03/24 05:27:06;;;;;;;15.48;4.15;;;;;;;4.95;100.00;100390.19;5094779;28;20035;-77
2024/03/24 05:29:32;;;;;;;26.80;4.22;;;;;;;5.04;100.00;100393.94;5094906;28;20116;-77
2024/03/24 05:32:00;;;;;;;17.83;4.38;;;;;;;5.12;100.00;100397.72;5094911;28;20098;-76
2024/03/24 05:34:26;;;;;;;16.65;4.10;;;;;;;5.14;100.00;100394.13;5094547;28;20036;-77
2024/03/24 05:36:52;;;;;;;19.35;4.85;;;;;;;5.11;100.00;100395.19;5094631;28;20115;-77
2024/03/24 05:39:17;;;;;;;12.13;4.03;;;;;;;5.07;100.00;100404.28;5076925;28;20472;-78
2024/03/24 05:41:47;;;;;;;23.27;4.90;;;;;;;5.00;100.00;100393.34;5094804;28;20024;-78
2024/03/24 05:44:13;;;;;;;16.70;4.47;;;;;;;4.94;100.00;100388.50;5094446;28;20366;-76
2024/03/24 05:46:38;;;;;;;23.15;4.70;;;;;;;4.90;100.00;100409.00;5094173;28;20088;-78
2024/03/24 05:49:03;;;;;;;24.88;5.28;;;;;;;4.88;100.00;100405.66;5093867;28;20034;-77
2024/03/24 05:51:29;;;;;;;14.90;3.95;;;;;;;4.92;100.00;100416.78;5094133;28;20036;-77
2024/03/24 05:53:54;;;;;;;18.30;4.45;;;;;;;4.90;100.00;100409.00;5075470;28;20020;-78
2024/03/24 05:56:19;;;;;;;15.20;4.95;;;;;;;4.84;100.00;100420.00;5092580;28;20523;-79
2024/03/24 05:58:45;;;;;;;15.45;3.88;;;;;;;4.85;100.00;100413.78;5093645;28;20476;-78
2024/03/24 06:01:10;;;;;;;18.35;3.72;;;;;;;4.90;100.00;100421.34;5093841;28;20107;-78
2024/03/24 06:03:35;;;;;;;20.52;4.93;;;;;;;4.93;100.00;100418.47;5075231;28;20080;-77
2024/03/24 06:06:01;;;;;;;21.88;4.03;;;;;;;4.94;100.00;100414.88;5075588;28;20069;-77
2024/03/24 06:08:27;;;;;;;20.83;3.67;;;;;;;4.99;100.00;100411.94;5092492;28;20039;-77
2024/03/24 06:10:53;;;;;;;11.25;3.22;;;;;;;4.99;100.00;100425.94;5076112;28;20025;-77
2024/03/24 06:13:19;;;;;;;20.08;3.38;;;;;;;4.98;100.00;100424.25;5075040;28;20024;-78
2024/03/24 06:15:53;;;;;;;15.40;3.63;;;;;;;4.98;100.00;100426.06;5058399;28;20403;-77
2024/03/24 06:18:18;;;;;;;15.13;3.17;;;;;;;4.99;100.00;100428.56;5093696;28;20056;-77
2024/03/24 06:20:44;;;;;;;20.17;4.88;;;;;;;4.99;100.00;100427.75;5093161;28;20097;-77
2024/03/24 06:23:19;;;;;;;16.98;3.60;;;;;;;5.03;100.00;100429.19;5075211;28;20390;-77
2024/03/24 06:25:44;;;;;;;16.65;4.32;;;;;;;5.12;100.00;100432.00;5093037;28;20111;-76
2024/03/24 06:28:09;;;;;;;14.00;3.78;;;;;;;5.23;100.00;100454.09;5092280;28;20040;-78
2024/03/24 06:30:35;;;;;;;12.90;3.33;;;;;;;5.26;100.00;100432.75;5092255;28;20079;-77
2024/03/24 06:33:00;;;;;;;21.95;4.45;;;;;;;5.30;100.00;100427.13;5074038;28;20052;-77
2024/03/24 06:35:35;;;;;;;24.50;4.40;;;;;;;5.37;100.00;100437.22;5092488;28;20035;-77
2024/03/24 06:38:03;;;;;;;10.60;2.85;;;;;;;5.38;100.00;100431.00;5093545;28;20035;-76
2024/03/24 06:40:28;;;;;;;19.80;3.70;;;;;;;5.37;100.00;100430.13;5093412;28;20438;-78
2024/03/24 06:42:59;;;;;;;17.65;3.92;;;;;;;5.39;100.00;100419.47;5094036;28;20028;-76
2024/03/24 06:45:35;;;;;;;14.88;3.55;;;;;;;5.40;100.00;100434.34;5075219;28;20115;-77
2024/03/24 06:48:05;;;;;;;14.15;3.30;;;;;;;5.41;100.00;100418.41;5058599;28;20430;-77
2024/03/24 06:50:31;;;;;;;13.02;3.38;;;;;;;5.41;100.00;100423.69;5075359;28;20460;-77
2024/03/24 06:52:58;;;;;;;17.33;3.58;;;;;;;5.48;100.00;100429.34;5074683;28;20024;-79
2024/03/24 06:55:26;;;;;;;16.45;4.35;;;;;;;5.57;100.00;100426.00;5092951;28;20544;-77
2024/03/24 06:57:52;;;;;;;15.63;3.33;;;;;;;5.61;100.00;100426.59;5057499;28;20050;-77
2024/03/24 07:00:18;;;;;;;19.30;4.07;;;;;;;5.63;100.00;100438.75;5092712;28;20028;-76
2024/03/24 07:02:47;;;;;;;15.60;3.80;;;;;;;5.66;100.00;100432.38;5092458;28;20028;-78
2024/03/24 07:05:14;;;;;;;15.43;3.63;;;;;;;5.73;100.00;100433.59;5092893;28;20357;-77
2024/03/24 07:07:39;;;;;;;11.25;3.40;;;;;;;5.78;100.00;100427.97;5074399;28;20076;-77
2024/03/24 07:10:06;;;;;;;16.58;4.03;;;;;;;5.87;100.00;100432.53;5092686;28;20115;-77
2024/03/24 07:12:33;;;;;;;20.10;4.50;;;;;;;6.05;100.00;100434.75;5074525;28;20024;-77
2024/03/24 07:14:59;;;;;;;15.43;3.45;;;;;;;6.20;100.00;100424.78;5074283;28;20200;-75
2024/03/24 07:17:24;;;;;;;15.65;3.90;;;;;;;6.35;100.00;100440.25;5074395;28;20069;-79
2024/03/24 07:19:50;;;;;;;17.73;3.22;;;;;;;6.56;100.00;100438.69;5074703;28;20097;-76
2024/03/24 07:22:15;;;;;;;10.98;2.92;;;;;;;6.68;100.00;100451.72;5092262;28;20046;-76
2024/03/24 07:24:41;;;;;;;9.75;2.80;;;;;;;6.75;100.00;100436.22;5092481;28;20024;-77
2024/03/24 07:27:06;;;;;;;11.10;2.97;;;;;;;6.73;100.00;100447.88;5092585;28;20036;-77
2024/03/24 07:29:31;;;;;;;17.13;3.40;;;;;;;6.60;100.00;100453.31;5074678;28;20025;-78
2024/03/24 07:31:57;;;;;;;20.63;3.53;;;;;;;6.43;100.00;100458.13;5074493;28;20071;-78
2024/03/24 07:34:22;;;;;;;18.75;3.80;;;;;;;6.10;100.00;100451.06;5092192;28;20093;-78
2024/03/24 07:36:47;;;;;;;17.08;3.63;;;;;;;5.83;100.00;100458.31;5092098;28;20439;-75
2024/03/24 07:39:13;;;;;;;18.50;3.92;;;;;;;5.78;100.00;100457.00;5092306;28;20444;-75
2024/03/24 07:41:38;;;;;;;14.48;3.50;;;;;;;5.77;100.00;100464.06;5092174;28;20093;-75
2024/03/24 07:44:03;;;;;;;12.35;3.08;;;;;;;5.83;100.00;100453.03;5073970;28;20081;-75
2024/03/24 07:46:29;;;;;;;17.38;3.60;;;;;;;5.93;100.00;100473.47;5092368;28;20468;-78
2024/03/24 07:48:54;;;;;;;13.75;2.72;;;;;;;5.99;100.00;100470.41;5092076;28;20085;-75
2024/03/24 07:51:20;;;;;;;15.90;2.65;;;;;;;6.06;100.00;100458.41;5074306;28;20085;-76
2024/03/24 07:53:47;;;;;;;10.90;3.38;;;;;;;6.04;100.00;100467.41;5073864;28;20032;-75
2024/03/24 07:56:13;;;;;;;19.40;3.50;;;;;;;6.06;100.00;100462.81;5074582;28;20034;-75
2024/03/24 07:58:38;;;;;;;16.42;3.22;;;;;;;6.07;100.00;100467.97;5092353;28;20024;-75
2024/03/24 08:01:04;;;;;;;21.75;4.07;;;;;;;6.16;100.00;100477.84;5073941;28;20067;-75
2024/03/24 08:03:29;;;;;;;17.23;3.35;;;;;;;6.17;100.00;100468.13;5074272;28;20028;-77
2024/03/24 08:05:54;;;;;;;16.15;4.00;;;;;;;6.30;100.00;100483.84;5092104;28;20442;-75
2024/03/24 08:08:20;;;;;;;18.38;3.28;;;;;;;6.36;100.00;100464.88;5057185;28;20032;-75
2024/03/24 08:10:45;;;;;;;19.70;3.67;;;;;;;6.35;100.00;100473.75;5092084;28;20032;-76
2024/03/24 08:13:10;;;;;;;15.27;3.00;;;;;;;6.34;100.00;100472.06;5092071;28;20103;-75
2024/03/24 08:15:36;;;;;;;16.83;3.00;;;;;;;6.33;100.00;100478.34;5091927;28;20387;-76
2024/03/24 08:18:02;;;;;;;20.67;3.20;;;;;;;6.30;100.00;100486.47;5091910;28;20028;-76
2024/03/24 08:20:28;;;;;;;18.83;3.58;;;;;;;6.36;100.00;100478.09;5094910;28;20036;-77
2024/03/24 08:22:54;;;;;;;22.58;3.85;;;;;;;6.49;100.00;100473.53;5095395;28;20111;-77
2024/03/24 08:25:20;;;;;;;13.77;3.10;;;;;;;6.69;100.00;100471.94;5095706;28;20114;-76
2024/03/24 08:27:45;;;;;;;11.85;3.13;;;;;;;6.85;100.00;100484.78;5095678;28;20036;-77
2024/03/24 08:30:13;;;;;;;12.65;3.05;;;;;;;7.02;100.00;100486.03;5095578;28;20107;-76
2024/03/24 08:32:39;;;;;;;20.73;3.30;;;;;;;7.14;100.00;100486.00;5095886;28;20067;-75
2024/03/24 08:35:08;;;;;;;26.00;4.28;;;;;;;7.18;100.00;100463.59;5095782;28;20028;-75
2024/03/24 08:37:33;;;;;;;18.38;3.28;;;;;;;7.03;100.00;100492.16;5095445;28;20513;-79
2024/03/24 08:39:58;;;;;;;17.63;3.42;;;;;;;6.75;100.00;100497.03;5095560;28;20050;-77
2024/03/24 08:42:25;;;;;;;16.40;2.95;;;;;;;6.50;100.00;100508.72;5095751;28;20498;-77
2024/03/24 08:44:50;;;;;;;12.15;2.65;;;;;;;6.04;100.00;100518.41;5095424;28;20029;-75
2024/03/24 08:47:15;;;;;;;8.95;2.10;;;;;;;5.53;100.00;100529.28;5095080;28;20035;-76
2024/03/24 08:49:41;;;;;;;3.60;1.17;;;;;;;4.97;100.00;100535.97;5094856;28;20119;-75
2024/03/24 08:52:06;;;;;;;2.88;0.77;;;;;;;4.48;100.00;100537.63;5094692;28;20123;-78
2024/03/24 08:54:31;;;;;;;7.30;1.08;;;;;;;4.16;100.00;100531.97;5076649;28;20070;-77
2024/03/24 08:56:57;;;;;;;6.88;1.23;;;;;;;4.04;100.00;100537.09;5094699;28;20036;-77
2024/03/24 08:59:23;;;;;;;4.85;1.50;;;;;;;4.02;100.00;100523.22;5094582;28;20051;-76
2024/03/24 09:01:49;;;;;;;13.80;2.65;;;;;;;4.11;100.00;100527.00;5094841;28;20032;-77
2024/03/24 09:04:14;;;;;;;9.60;2.15;;;;;;;4.28;100.00;100530.28;5095112;28;20038;-77
2024/03/24 09:06:39;;;;;;;10.70;2.60;;;;;;;4.47;100.00;100522.78;5076158;28;20434;-78
2024/03/24 09:09:05;;;;;;;21.35;2.53;;;;;;;4.69;100.00;100532.66;5094276;28;20024;-77
2024/03/24 09:11:30;;;;;;;14.48;2.20;;;;;;;4.98;100.00;100540.25;5094107;28;20067;-77
2024/03/24 09:13:55;;;;;;;17.73;3.30;;;;;;;5.26;100.00;100544.38;5094046;28;20024;-77
2024/03/24 09:16:21;;;;;;;18.67;2.75;;;;;;;5.42;100.00;100535.34;5093838;28;20044;-78
2024/03/24 09:18:46;;;;;;;17.95;2.80;;;;;;;5.55;100.00;100540.56;5093949;28;20068;-77
2024/03/24 09:21:12;;;;;;;21.35;2.83;;;;;;;5.63;100.00;100538.22;5094007;28;20050;-77
2024/03/24 09:23:37;;;;;;;15.70;2.80;;;;;;;5.77;100.00;100535.34;5093903;28;20027;-75
2024/03/24 09:26:03;;;;;;;14.32;2.58;;;;;;;5.84;100.00;100535.75;5094078;28;20032;-77
2024/03/24 09:28:29;;;;;;;15.80;2.70;;;;;;;5.90;100.00;100524.72;5075553;28;20055;-76
2024/03/24 09:30:56;;;;;;;11.43;2.55;;;;;;;5.91;100.00;100536.97;5075576;28;20482;-76
2024/03/24 09:33:22;;;;;;;17.30;2.45;;;;;;;5.95;100.00;100542.84;5093687;28;20443;-77
2024/03/24 09:35:47;;;;;;;8.32;2.08;;;;;;;6.10;100.00;100549.63;5075326;28;20016;-76
2024/03/24 09:38:13;;;;;;;11.80;2.25;;;;;;;6.31;100.00;100543.66;5093614;28;20438;-77
2024/03/24 09:40:38;;;;;;;12.57;2.65;;;;;;;6.40;100.00;100552.69;5093584;28;20450;-76
2024/03/24 09:43:04;;;;;;;13.15;2.85;;;;;;;6.31;100.00;100547.13;5093510;28;20036;-79
2024/03/24 09:45:31;;;;;;;15.10;3.28;;;;;;;6.33;100.00;100536.47;5093855;28;20040;-77
2024/03/24 09:47:58;;;;;;;16.48;2.67;;;;;;;6.25;100.00;100550.25;5093158;28;20039;-78
2024/03/24 09:50:25;;;;;;;14.15;2.97;;;;;;;6.08;100.00;100563.94;5093611;28;20427;-77
2024/03/24 09:52:54;;;;;;;19.35;3.33;;;;;;;5.95;100.00;100548.97;5093231;28;20059;-78
2024/03/24 09:55:27;;;;;;;17.48;3.08;;;;;;;5.90;100.00;100547.66;5093382;28;20036;-78
2024/03/24 09:57:54;;;;;;;15.65;3.22;;;;;;;5.92;100.00;100564.22;5093178;28;20032;-79
2024/03/24 10:00:19;;;;;;;28.45;3.70;;;;;;;5.93;100.00;100560.63;5093271;28;20483;-78
2024/03/24 10:02:46;;;;;;;21.17;3.65;;;;;;;5.95;100.00;100554.25;5093164;28;20104;-82
2024/03/24 10:05:13;;;;;;;23.90;4.63;;;;;;;5.99;100.00;100558.38;5093318;28;20039;-79
2024/03/24 10:07:39;;;;;;;24.92;4.07;;;;;;;6.06;100.00;100561.41;5093345;28;20028;-77
2024/03/24 10:10:08;;;;;;;20.02;3.75;;;;;;;6.19;100.00;100556.03;5074507;28;20028;-77
2024/03/24 10:12:33;;;;;;;24.40;3.90;;;;;;;6.43;100.00;100558.56;5093164;28;20455;-79
2024/03/24 10:15:18;;;;;;;20.45;3.97;;;;;;;6.64;100.00;100548.13;5093133;28;20044;-79
2024/03/24 10:17:44;;;;;;;17.05;2.95;;;;;;;6.71;100.00;100578.41;5093964;28;20024;-77
2024/03/24 10:20:13;;;;;;;12.82;3.17;;;;;;;6.58;100.00;100579.47;5093069;28;20031;-77
2024/03/24 10:22:39;;;;;;;14.07;2.92;;;;;;;6.15;100.00;100580.97;5093492;28;20028;-78
2024/03/24 10:25:10;;;;;;;11.32;2.42;;;;;;;5.58;100.00;100564.94;5093039;28;20020;-77
2024/03/24 10:27:35;;;;;;;15.13;2.90;;;;;;;5.45;100.00;100562.34;5093117;28;20023;-77
2024/03/24 10:30:00;;;;;;;22.63;2.97;;;;;;;5.83;100.00;100571.84;5074434;28;20035;-77
2024/03/24 10:32:26;;;;;;;13.23;3.05;;;;;;;7.21;100.00;100569.19;5092917;28;20122;-77
2024/03/24 10:34:54;;;;;;;15.93;3.95;;;;;;;8.56;100.00;100566.88;5093101;28;20381;-76
2024/03/24 10:37:19;;;;;;;21.85;4.00;;;;;;;9.62;100.00;100569.94;5092855;28;20122;-75
2024/03/24 10:39:45;;;;;;;18.45;3.58;;;;;;;9.76;100.00;100569.50;5075129;28;20048;-77
2024/03/24 10:42:16;;;;;;;18.77;3.20;;;;;;;9.44;100.00;100567.97;5091856;28;20028;-76
2024/03/24 10:44:43;;;;;;;17.95;3.28;;;;;;;8.77;100.00;100575.63;5093088;28;20024;-77
2024/03/24 10:47:14;;;;;;;26.25;4.45;;;;;;;8.06;100.00;100580.78;5092505;28;20035;-77
2024/03/24 10:49:41;;;;;;;19.38;3.70;;;;;;;7.66;100.00;100577.03;5066422;28;20054;-77
2024/03/24 10:52:09;;;;;;;17.38;2.70;;;;;;;7.20;100.00;100567.53;5092491;28;20114;-80
2024/03/24 11:00:45;;;;;;;27.60;4.00;;;;;;;8.80;100.00;100566.56;5092842;28;20368;-81
2024/03/24 11:03:13;;;;;;;15.85;3.25;;;;;;;8.47;100.00;100582.59;5074837;28;20058;-80
2024/03/24 11:05:39;;;;;;;24.48;4.30;;;;;;;8.58;100.00;100587.00;5092800;28;20043;-80
2024/03/24 11:08:06;;;;;;;16.23;3.40;;;;;;;8.39;100.00;100586.84;5074797;28;20024;-80
2024/03/24 11:10:36;;;;;;;15.55;2.95;;;;;;;7.59;100.00;100613.75;5092784;28;20028;-81
2024/03/24 11:13:04;;;;;;;23.08;3.38;;;;;;;6.99;100.00;100607.13;5092071;28;20488;-82
2024/03/24 11:15:34;;;;;;;16.38;3.00;;;;;;;6.45;100.00;100604.22;5092113;28;20228;-83
2024/03/24 11:18:25;;;;;;;16.70;2.97;;;;;;;6.35;100.00;100597.97;5074614;28;20063;-82
2024/03/24 11:20:54;;;;;;;22.10;3.38;;;;;;;6.79;100.00;100606.06;5093824;28;20028;-83